createdAt,value
2019-05-02T00:01:21.333Z,67.85
2019-05-02T00:03:50.041Z,68.17
2019-05-02T00:06:18.854Z,68.77
2019-05-02T00:08:48.152Z,69.03
2019-05-02T00:11:17.064Z,68.79
2019-05-02T00:13:45.872Z,68.82
2019-05-02T00:16:15.466Z,68.43
2019-05-02T00:18:44.262Z,68.15
2019-05-02T00:21:13.474Z,68.96
2019-05-02T00:23:43.085Z,68.62
2019-05-02T00:26:12.147Z,68.16
2019-05-02T00:28:42.998Z,68.20
2019-05-02T00:31:12.870Z,68.42
2019-05-02T00:33:41.746Z,68.71
2019-05-02T00:36:10.458Z,68.56
2019-05-02T00:38:39.914Z,68.69
2019-05-02T00:41:14.558Z,68.73
2019-05-02T00:43:44.110Z,68.64
2019-05-02T00:46:12.823Z,68.61
2019-05-02T00:48:43.108Z,69.41
2019-05-02T00:51:11.906Z,69.42
2019-05-02T00:53:44.364Z,69.85
2019-05-02T00:56:11.065Z,70.40
2019-05-02T00:58:39.933Z,70.65
2019-05-02T01:01:19.312Z,71.04
2019-05-02T01:03:53.819Z,70.65
2019-05-02T01:06:22.796Z,71.36
2019-05-02T01:08:51.511Z,71.65
2019-05-02T01:11:20.278Z,71.33
2019-05-02T01:13:50.357Z,70.89
2019-05-02T01:16:20.386Z,71.28
2019-05-02T01:18:49.570Z,71.15
2019-05-02T01:21:18.282Z,71.66
2019-05-02T01:23:46.995Z,72.32
2019-05-02T01:26:15.776Z,73.08
2019-05-02T01:28:49.269Z,73.09
2019-05-02T01:31:21.089Z,72.88
2019-05-02T01:33:51.377Z,72.38
2019-05-02T01:36:21.669Z,72.16
2019-05-02T01:38:51.236Z,71.87
2019-05-02T01:41:23.903Z,72.65
2019-05-02T01:43:50.381Z,72.53
2019-05-02T01:46:22.234Z,73.02
2019-05-02T01:48:49.620Z,72.17
2019-05-02T01:51:18.343Z,71.96
2019-05-02T01:53:47.092Z,71.77
2019-05-02T01:56:15.821Z,72.40
2019-05-02T01:58:44.529Z,72.36
2019-05-02T02:01:16.212Z,72.00
2019-05-02T02:03:45.536Z,72.76
2019-05-02T02:06:14.810Z,73.01
2019-05-02T02:08:44.375Z,73.09
2019-05-02T02:11:13.087Z,73.48
2019-05-02T02:13:41.806Z,73.26
2019-05-02T02:16:10.699Z,74.08
2019-05-02T02:18:40.988Z,74.01
2019-05-02T02:21:19.975Z,73.73
2019-05-02T02:23:55.695Z,74.10
2019-05-02T02:26:25.398Z,74.12
2019-05-02T02:28:54.120Z,73.97
2019-05-02T02:31:23.106Z,74.48
2019-05-02T02:33:52.740Z,74.40
2019-05-02T02:36:31.561Z,74.17
2019-05-02T02:38:51.919Z,74.43
2019-05-02T02:41:20.861Z,74.32
2019-05-02T02:44:06.277Z,74.32
2019-05-02T02:46:45.827Z,74.26
2019-05-02T02:49:21.615Z,74.45
2019-05-02T02:51:44.990Z,74.34
2019-05-02T02:54:13.764Z,74.12
2019-05-02T02:56:42.885Z,73.80
2019-05-02T02:59:11.568Z,74.27
2019-05-02T03:01:41.100Z,73.75
2019-05-02T03:04:12.285Z,73.57
2019-05-02T03:06:44.875Z,73.41
2019-05-02T03:09:10.769Z,73.52
2019-05-02T03:11:46.819Z,73.01
2019-05-02T03:14:17.257Z,72.83
2019-05-02T03:16:49.215Z,73.48
2019-05-02T03:19:21.310Z,73.61
2019-05-02T03:22:00.862Z,74.33
2019-05-02T03:24:27.031Z,74.62
2019-05-02T03:26:58.365Z,73.85
2019-05-02T03:29:39.933Z,74.62
2019-05-02T03:32:12.304Z,74.92
2019-05-02T03:34:45.326Z,74.92
2019-05-02T03:37:03.218Z,75.62
2019-05-02T03:39:29.130Z,76.34
2019-05-02T03:42:02.890Z,76.98
2019-05-02T03:44:28.526Z,77.20
2019-05-02T03:47:01.891Z,78.00
2019-05-02T03:49:27.849Z,78.08
2019-05-02T03:52:02.656Z,78.53
2019-05-02T03:54:27.284Z,79.11
2019-05-02T03:56:56.100Z,79.72
2019-05-02T03:59:37.570Z,80.16
2019-05-02T04:01:56.390Z,81.00
2019-05-02T04:04:25.095Z,81.42
2019-05-02T04:06:54.889Z,81.77
2019-05-02T04:09:39.684Z,82.04
2019-05-02T04:12:11.564Z,81.95
2019-05-02T04:14:39.848Z,82.86
2019-05-02T04:17:10.828Z,83.48
2019-05-02T04:19:39.978Z,84.65
2019-05-02T04:22:11.870Z,84.90
2019-05-02T04:24:39.771Z,85.16
2019-05-02T04:27:09.038Z,84.24
2019-05-02T04:29:38.555Z,83.23
2019-05-02T04:32:11.295Z,83.11
2019-05-02T04:34:38.594Z,83.27
2019-05-02T04:37:07.462Z,82.93
2019-05-02T04:39:39.093Z,82.37
2019-05-02T04:42:13.160Z,81.92
2019-05-02T04:44:59.782Z,80.58
2019-05-02T04:47:16.884Z,80.51
2019-05-02T04:49:39.216Z,81.90
2019-05-02T04:52:12.180Z,80.84
2019-05-02T04:54:39.038Z,79.60
2019-05-02T04:57:08.687Z,78.57
2019-05-02T04:59:39.461Z,79.71
2019-05-02T05:02:09.014Z,80.05
2019-05-02T05:04:46.015Z,81.05
2019-05-02T05:07:09.491Z,80.70
2019-05-02T05:09:40.027Z,79.76
2019-05-02T05:12:09.857Z,77.74
2019-05-02T05:14:43.098Z,77.79
2019-05-02T05:17:09.018Z,76.72
2019-05-02T05:19:38.574Z,75.79
2019-05-02T05:22:11.675Z,75.66
2019-05-02T05:24:42.581Z,74.84
2019-05-02T05:27:13.236Z,73.24
2019-05-02T05:29:41.844Z,73.44
2019-05-02T05:32:10.559Z,72.89
2019-05-02T05:34:39.631Z,72.47
2019-05-02T05:37:09.408Z,73.59
2019-05-02T05:39:42.934Z,74.00
2019-05-02T05:42:10.694Z,75.98
2019-05-02T05:44:39.947Z,77.46
2019-05-02T05:47:12.068Z,76.49
2019-05-02T05:49:39.804Z,75.93
2019-05-02T05:52:08.520Z,76.07
2019-05-02T05:54:40.478Z,74.99
2019-05-02T05:57:07.818Z,76.35
2019-05-02T05:59:38.005Z,74.90
2019-05-02T06:02:13.169Z,74.82
2019-05-02T06:04:38.698Z,71.65
2019-05-02T06:07:07.767Z,71.60
2019-05-02T06:09:36.483Z,72.67
2019-05-02T06:12:05.456Z,70.79
2019-05-02T06:14:34.786Z,71.54
2019-05-02T06:17:03.613Z,71.02
2019-05-02T06:19:32.461Z,72.12
2019-05-02T06:22:01.176Z,72.91
2019-05-02T06:24:29.899Z,72.66
2019-05-02T06:26:58.680Z,73.42
2019-05-02T06:29:27.397Z,72.51
2019-05-02T06:31:59.028Z,72.70
2019-05-02T06:34:27.786Z,72.60
2019-05-02T06:36:56.509Z,72.32
2019-05-02T06:39:27.219Z,70.40
2019-05-02T06:41:57.482Z,68.71
2019-05-02T06:44:26.269Z,68.23
2019-05-02T06:46:59.196Z,68.21
2019-05-02T06:49:26.343Z,68.08
2019-05-02T06:51:56.321Z,66.77
2019-05-02T06:54:25.509Z,68.98
2019-05-02T06:56:54.517Z,65.90
2019-05-02T06:59:23.253Z,65.88
2019-05-02T07:01:52.457Z,65.85
2019-05-02T07:04:25.019Z,64.89
2019-05-02T07:06:58.924Z,63.28
2019-05-02T07:09:24.640Z,63.17
2019-05-02T07:11:57.340Z,64.62
2019-05-02T07:14:25.624Z,63.87
2019-05-02T07:16:59.110Z,64.23
2019-05-02T07:19:32.479Z,65.28
2019-05-02T07:22:04.216Z,65.44
2019-05-02T07:24:32.711Z,65.29
2019-05-02T07:27:02.500Z,63.60
2019-05-02T07:29:31.373Z,62.55
2019-05-02T07:32:00.085Z,63.91
2019-05-02T07:34:29.822Z,62.91
2019-05-02T07:36:58.543Z,60.44
2019-05-02T07:39:27.265Z,60.90
2019-05-02T07:42:00.482Z,59.88
2019-05-02T07:44:27.168Z,59.77
2019-05-02T07:47:02.550Z,60.67
2019-05-02T07:49:32.336Z,58.82
2019-05-02T07:51:59.006Z,58.19
2019-05-02T07:54:27.800Z,56.21
2019-05-02T07:56:56.588Z,55.43
2019-05-02T07:59:25.309Z,56.81
2019-05-02T08:01:54.026Z,56.30
2019-05-02T08:04:22.793Z,56.05
2019-05-02T08:06:51.515Z,55.07
2019-05-02T08:09:20.346Z,53.79
2019-05-02T08:11:49.114Z,50.58
2019-05-02T08:14:18.802Z,52.60
2019-05-02T08:16:47.514Z,50.51
2019-05-02T08:19:17.170Z,50.66
2019-05-02T08:21:45.899Z,48.94
2019-05-02T08:24:14.608Z,51.08
2019-05-02T08:26:53.361Z,48.04
2019-05-02T08:29:23.342Z,47.15
2019-05-02T08:31:52.709Z,49.05
2019-05-02T08:34:32.318Z,45.08
2019-05-02T08:37:03.340Z,46.40
2019-05-02T08:39:33.937Z,47.22
2019-05-02T08:42:03.911Z,46.44
2019-05-02T08:44:32.629Z,44.91
2019-05-02T08:47:01.352Z,46.78
2019-05-02T08:49:30.124Z,43.13
2019-05-02T08:51:58.839Z,42.09
2019-05-02T08:54:27.961Z,44.54
2019-05-02T08:56:59.114Z,41.83
2019-05-02T08:59:28.635Z,43.24
2019-05-02T09:01:57.350Z,40.75
2019-05-02T09:04:29.133Z,39.84
2019-05-02T09:06:58.869Z,42.44
2019-05-02T09:09:28.188Z,39.36
2019-05-02T09:12:11.469Z,37.13
2019-05-02T09:14:27.991Z,38.48
2019-05-02T09:17:00.329Z,37.35
2019-05-02T09:19:27.198Z,37.89
2019-05-02T09:21:55.919Z,37.42
2019-05-02T09:24:24.639Z,36.34
2019-05-02T09:26:53.591Z,36.50
2019-05-02T09:29:22.402Z,36.39
2019-05-02T09:31:52.671Z,37.05
2019-05-02T09:34:26.536Z,34.74
2019-05-02T09:36:53.153Z,36.49
2019-05-02T09:39:22.759Z,37.23
2019-05-02T09:41:52.662Z,39.00
2019-05-02T09:44:22.348Z,37.57
2019-05-02T09:46:55.212Z,36.88
2019-05-02T09:49:22.169Z,35.99
2019-05-02T09:51:59.084Z,36.25
2019-05-02T09:54:23.166Z,37.51
2019-05-02T09:56:52.496Z,36.65
2019-05-02T09:59:27.767Z,38.74
2019-05-02T10:01:53.366Z,36.94
2019-05-02T10:04:22.497Z,37.53
2019-05-02T10:06:52.446Z,37.28
2019-05-02T10:09:24.109Z,35.41
2019-05-02T10:11:52.479Z,34.99
2019-05-02T10:14:22.612Z,35.67
2019-05-02T10:16:52.911Z,36.94
2019-05-02T10:19:25.936Z,34.95
2019-05-02T10:21:56.244Z,34.50
2019-05-02T10:24:22.928Z,33.65
2019-05-02T10:26:55.248Z,35.34
2019-05-02T10:29:28.076Z,35.95
2019-05-02T10:31:52.906Z,36.46
2019-05-02T10:34:22.922Z,34.79
2019-05-02T10:36:58.735Z,36.53
2019-05-02T10:39:23.501Z,34.67
2019-05-02T10:41:53.510Z,35.40
2019-05-02T10:44:22.697Z,34.46
2019-05-02T10:47:02.682Z,34.07
2019-05-02T10:49:32.631Z,32.73
2019-05-02T10:52:02.662Z,32.24
2019-05-02T10:54:33.806Z,34.23
2019-05-02T10:57:02.397Z,30.53
2019-05-02T10:59:32.767Z,32.55
2019-05-02T11:02:03.441Z,30.22
2019-05-02T11:04:33.727Z,32.65
2019-05-02T11:07:02.695Z,31.47
2019-05-02T11:09:31.982Z,29.97
2019-05-02T11:12:02.587Z,31.87
2019-05-02T11:14:36.344Z,30.22
2019-05-02T11:17:13.913Z,30.49
2019-05-02T11:19:42.036Z,30.98
2019-05-02T11:22:12.117Z,30.66
2019-05-02T11:24:41.771Z,29.67
2019-05-02T11:27:12.685Z,29.64
2019-05-02T11:29:42.509Z,30.33
2019-05-02T11:32:12.821Z,30.59
2019-05-02T11:34:42.125Z,31.24
2019-05-02T11:37:12.117Z,29.53
2019-05-02T11:39:46.500Z,29.00
2019-05-02T11:42:12.490Z,28.76
2019-05-02T11:44:41.898Z,28.31
2019-05-02T11:47:12.641Z,27.17
2019-05-02T11:49:42.540Z,30.06
2019-05-02T11:52:12.358Z,29.43
2019-05-02T11:54:44.720Z,26.22
2019-05-02T11:57:11.771Z,29.94
2019-05-02T11:59:42.416Z,27.83
2019-05-02T12:02:17.436Z,27.93
2019-05-02T12:04:47.278Z,27.94
2019-05-02T12:07:13.543Z,27.35
2019-05-02T12:09:44.326Z,27.15
2019-05-02T12:12:15.579Z,27.64
2019-05-02T12:14:43.180Z,28.29
2019-05-02T12:17:12.185Z,28.55
2019-05-02T12:19:42.573Z,27.14
2019-05-02T12:22:12.919Z,29.70
2019-05-02T12:24:45.322Z,28.61
2019-05-02T12:27:12.573Z,30.94
2019-05-02T12:29:42.390Z,31.39
2019-05-02T12:32:12.051Z,32.89
2019-05-02T12:34:42.041Z,34.43
2019-05-02T12:37:12.596Z,35.04
2019-05-02T12:39:42.547Z,36.84
2019-05-02T12:42:12.713Z,38.54
2019-05-02T12:44:42.646Z,39.47
2019-05-02T12:47:11.921Z,40.39
2019-05-02T12:49:42.396Z,40.85
2019-05-02T12:52:12.951Z,39.33
2019-05-02T12:54:41.793Z,39.35
2019-05-02T12:57:12.375Z,39.90
2019-05-02T12:59:41.686Z,39.92
2019-05-02T13:02:12.252Z,39.53
2019-05-02T13:04:41.890Z,37.11
2019-05-02T13:07:12.652Z,36.42
2019-05-02T13:09:42.018Z,36.51
2019-05-02T13:12:13.304Z,36.74
2019-05-02T13:14:42.385Z,37.09
2019-05-02T13:17:11.982Z,36.45
2019-05-02T13:19:48.384Z,35.80
2019-05-02T13:22:15.600Z,37.27
2019-05-02T13:24:47.065Z,34.83
2019-05-02T13:27:17.764Z,37.88
2019-05-02T13:29:47.582Z,34.83
2019-05-02T13:32:24.124Z,32.47
2019-05-02T13:35:12.724Z,34.20
2019-05-02T13:37:42.425Z,33.15
2019-05-02T13:40:17.029Z,32.66
2019-05-02T13:42:44.735Z,33.62
2019-05-02T13:45:17.355Z,33.49
2019-05-02T13:47:46.176Z,35.17
2019-05-02T13:50:15.090Z,33.05
2019-05-02T13:52:44.952Z,35.15
2019-05-02T13:55:15.987Z,31.20
2019-05-02T13:57:46.869Z,31.63
2019-05-02T14:00:18.619Z,29.86
2019-05-02T14:02:47.333Z,27.60
2019-05-02T14:05:16.853Z,30.19
2019-05-02T14:07:48.407Z,25.91
2019-05-02T14:10:26.260Z,27.08
2019-05-02T14:12:59.641Z,28.91
2019-05-02T14:15:29.921Z,29.29
2019-05-02T14:17:58.632Z,27.96
2019-05-02T14:20:27.548Z,26.53
2019-05-02T14:22:57.710Z,28.68
2019-05-02T14:25:26.422Z,28.81
2019-05-02T14:27:56.618Z,29.96
2019-05-02T14:30:37.059Z,28.40
2019-05-02T14:32:59.250Z,30.89
2019-05-02T14:35:36.270Z,32.45
2019-05-02T14:38:08.390Z,31.79
2019-05-02T14:40:42.362Z,31.35
2019-05-02T14:43:12.869Z,31.70
2019-05-02T14:45:43.764Z,32.26
2019-05-02T14:48:19.276Z,33.38
2019-05-02T14:50:45.657Z,34.00
2019-05-02T14:53:16.785Z,35.07
2019-05-02T14:55:46.047Z,35.85
2019-05-02T14:58:14.777Z,35.45
2019-05-02T15:00:47.924Z,34.77
2019-05-02T15:03:19.076Z,36.34
2019-05-02T15:05:46.201Z,38.22
2019-05-02T15:08:14.912Z,39.77
2019-05-02T15:10:52.554Z,42.73
2019-05-02T15:13:14.238Z,51.38
2019-05-02T15:15:43.489Z,55.84
2019-05-02T15:18:17.382Z,56.98
2019-05-02T15:20:43.076Z,61.77
2019-05-02T15:23:17.583Z,58.35
2019-05-02T15:25:42.461Z,62.25
2019-05-02T15:28:13.158Z,59.83
2019-05-02T15:30:49.042Z,58.58
2019-05-02T15:33:17.114Z,57.04
2019-05-02T15:35:48.770Z,55.94
2019-05-02T15:38:24.807Z,56.76
2019-05-02T15:40:51.355Z,55.24
2019-05-02T15:43:18.532Z,51.01
2019-05-02T15:45:47.249Z,54.87
2019-05-02T15:48:22.791Z,55.90
2019-05-02T15:50:52.949Z,57.40
2019-05-02T15:53:38.974Z,56.91
2019-05-02T15:56:06.347Z,56.55
2019-05-02T15:58:35.072Z,58.35
2019-05-02T16:01:14.199Z,55.90
2019-05-02T16:03:47.495Z,55.04
2019-05-02T16:06:20.691Z,52.40
2019-05-02T16:08:46.847Z,50.06
2019-05-02T16:11:17.179Z,49.18
2019-05-02T16:13:52.744Z,50.88
2019-05-02T16:16:18.213Z,50.29
2019-05-02T16:18:46.944Z,51.45
2019-05-02T16:21:28.356Z,52.52
2019-05-02T16:24:11.222Z,52.62
2019-05-02T16:26:44.904Z,52.95
2019-05-02T16:29:10.979Z,53.63
2019-05-02T16:31:42.408Z,53.92
2019-05-02T16:34:12.567Z,54.80
2019-05-02T16:36:41.995Z,54.92
2019-05-02T16:39:13.273Z,55.39
2019-05-02T16:41:49.205Z,56.42
2019-05-02T16:44:12.744Z,57.02
2019-05-02T16:46:43.796Z,58.06
2019-05-02T16:49:15.699Z,58.30
2019-05-02T16:51:43.183Z,58.46
2019-05-02T16:54:12.738Z,55.71
2019-05-02T16:56:45.839Z,55.67
2019-05-02T16:59:12.659Z,55.66
2019-05-02T17:01:42.516Z,53.96
2019-05-02T17:04:12.910Z,55.54
2019-05-02T17:06:42.678Z,54.55
2019-05-02T17:09:28.715Z,57.15
2019-05-02T17:11:55.662Z,58.27
2019-05-02T17:14:24.381Z,58.35
2019-05-02T17:16:55.874Z,58.84
2019-05-02T17:19:26.198Z,59.00
2019-05-02T17:21:56.599Z,59.68
2019-05-02T17:24:26.269Z,60.26
2019-05-02T17:26:55.097Z,59.64
2019-05-02T17:29:23.816Z,58.80
2019-05-02T17:31:55.373Z,59.21
2019-05-02T17:34:29.957Z,59.84
2019-05-02T17:36:53.507Z,60.10
2019-05-02T17:39:22.389Z,62.40
2019-05-02T17:41:52.399Z,64.11
2019-05-02T17:44:24.106Z,65.11
2019-05-02T17:46:58.213Z,65.66
2019-05-02T17:49:23.611Z,66.63
2019-05-02T17:52:19.012Z,68.40
2019-05-02T17:54:42.402Z,69.61
2019-05-02T17:57:11.836Z,69.57
2019-05-02T17:59:42.196Z,69.61
2019-05-02T18:02:15.849Z,68.70
2019-05-02T18:04:46.686Z,67.50
2019-05-02T18:07:13.982Z,67.12
2019-05-02T18:09:42.712Z,67.41
2019-05-02T18:12:12.697Z,66.67
2019-05-02T18:14:42.790Z,66.65
2019-05-02T18:17:12.734Z,65.30
2019-05-02T18:19:42.541Z,66.26
2019-05-02T18:22:23.484Z,65.36
2019-05-02T18:24:46.136Z,65.51
2019-05-02T18:27:12.972Z,65.46
2019-05-02T18:29:45.387Z,65.92
2019-05-02T18:32:12.949Z,65.98
2019-05-02T18:34:41.978Z,66.34
2019-05-02T18:37:10.940Z,66.66
2019-05-02T18:39:44.777Z,67.06
2019-05-02T18:42:11.959Z,67.32
2019-05-02T18:44:42.047Z,67.09
2019-05-02T18:47:12.543Z,67.31
2019-05-02T18:49:41.875Z,68.29
2019-05-02T18:52:11.696Z,69.56
2019-05-02T18:54:44.028Z,69.46
2019-05-02T18:57:11.907Z,69.42
2019-05-02T18:59:42.687Z,69.50
2019-05-02T19:02:11.655Z,69.90
2019-05-02T19:04:42.371Z,70.41
2019-05-02T19:07:12.979Z,70.82
2019-05-02T19:09:50.912Z,71.31
2019-05-02T19:12:19.468Z,71.38
2019-05-02T19:14:42.541Z,71.30
2019-05-02T19:17:12.215Z,72.04
2019-05-02T19:19:41.876Z,72.26
2019-05-02T19:22:13.341Z,72.31
2019-05-02T19:24:41.950Z,72.90
2019-05-02T19:27:12.838Z,73.29
2019-05-02T19:29:42.451Z,73.81
2019-05-02T19:32:12.235Z,74.24
2019-05-02T19:34:41.904Z,74.68
2019-05-02T19:37:12.142Z,74.48
2019-05-02T19:39:47.209Z,74.42
2019-05-02T19:42:17.083Z,74.10
2019-05-02T19:44:44.509Z,74.41
2019-05-02T19:47:17.476Z,74.64
2019-05-02T19:49:47.155Z,74.66
2019-05-02T19:52:14.181Z,75.04
2019-05-02T19:54:43.666Z,74.61
2019-05-02T19:57:12.517Z,74.51
2019-05-02T19:59:43.051Z,74.56
2019-05-02T20:02:12.041Z,74.52
2019-05-02T20:04:42.727Z,73.87
2019-05-02T20:07:12.465Z,74.26
2019-05-02T20:09:45.658Z,74.29
2019-05-02T20:12:15.505Z,73.42
2019-05-02T20:14:43.562Z,75.75
2019-05-02T20:17:20.240Z,77.18
2019-05-02T20:19:47.683Z,76.61
2019-05-02T20:22:16.709Z,76.88
2019-05-02T20:25:00.138Z,77.05
2019-05-02T20:27:28.416Z,78.32
2019-05-02T20:29:57.500Z,78.79
2019-05-02T20:32:26.280Z,78.79
2019-05-02T20:34:55.012Z,78.92
2019-05-02T20:37:23.734Z,79.24
2019-05-02T20:39:52.505Z,79.81
2019-05-02T20:42:21.257Z,80.50
2019-05-02T20:44:49.984Z,81.24
2019-05-02T20:47:22.484Z,81.70
2019-05-02T20:49:51.874Z,82.14
2019-05-02T20:52:21.849Z,82.80
2019-05-02T20:54:52.410Z,83.15
2019-05-02T20:57:21.396Z,82.78
2019-05-02T20:59:52.293Z,82.60
2019-05-02T21:02:20.922Z,82.46
2019-05-02T21:04:51.892Z,82.68
2019-05-02T21:07:22.163Z,82.37
2019-05-02T21:09:55.582Z,82.97
2019-05-02T21:12:24.441Z,82.91
2019-05-02T21:14:53.169Z,83.72
2019-05-02T21:17:22.173Z,84.86
2019-05-02T21:19:51.926Z,85.26
2019-05-02T21:22:23.578Z,85.28
2019-05-02T21:24:52.959Z,85.34
2019-05-02T21:27:21.927Z,85.15
2019-05-02T21:29:52.220Z,85.07
2019-05-02T21:32:22.911Z,84.99
2019-05-02T21:34:52.074Z,83.16
2019-05-02T21:37:22.640Z,81.72
2019-05-02T21:39:52.052Z,81.50
2019-05-02T21:42:22.599Z,81.65
2019-05-02T21:44:51.883Z,82.08
2019-05-02T21:47:22.482Z,82.58
2019-05-02T21:49:55.704Z,82.73
2019-05-02T21:52:32.256Z,82.97
2019-05-02T21:55:18.674Z,82.94
2019-05-02T21:57:47.524Z,83.39
2019-05-02T22:00:36.602Z,83.20
2019-05-02T22:03:05.575Z,82.43
2019-05-02T22:05:34.300Z,81.87
2019-05-02T22:08:03.068Z,81.83
2019-05-02T22:10:32.190Z,81.87
2019-05-02T22:13:02.159Z,81.58
2019-05-02T22:15:32.500Z,82.55
2019-05-02T22:18:01.734Z,83.41
2019-05-02T22:20:32.071Z,83.75
2019-05-02T22:23:02.394Z,83.97
2019-05-02T22:25:32.702Z,83.35
2019-05-02T22:28:02.048Z,82.82
2019-05-02T22:30:32.302Z,82.89
2019-05-02T22:33:02.834Z,84.55
2019-05-02T22:35:31.624Z,84.97
2019-05-02T22:38:07.812Z,85.32
2019-05-02T22:40:36.534Z,86.12
2019-05-02T22:43:05.254Z,86.78
2019-05-02T22:45:34.048Z,86.91
2019-05-02T22:48:02.769Z,87.22
2019-05-02T22:50:32.514Z,87.64
2019-05-02T22:53:01.506Z,87.91
2019-05-02T22:55:31.911Z,88.28
2019-05-02T22:58:02.334Z,88.40
2019-05-02T23:00:32.230Z,88.14
2019-05-02T23:03:01.882Z,87.67
2019-05-02T23:05:32.123Z,86.71
2019-05-02T23:08:02.265Z,86.74
2019-05-02T23:10:32.686Z,86.50
2019-05-02T23:13:02.424Z,86.44
2019-05-02T23:15:32.317Z,85.85
2019-05-02T23:18:01.671Z,86.26
2019-05-02T23:20:32.779Z,86.04
2019-05-02T23:23:01.904Z,86.05
2019-05-02T23:25:51.928Z,86.32
2019-05-02T23:28:24.297Z,85.83
2019-05-02T23:30:52.855Z,85.14
2019-05-02T23:33:23.372Z,84.50
2019-05-02T23:35:52.848Z,84.45
2019-05-02T23:38:21.844Z,84.47
2019-05-02T23:40:52.554Z,84.08
2019-05-02T23:43:21.869Z,85.24
2019-05-02T23:45:51.629Z,85.72
2019-05-02T23:48:22.086Z,86.41
2019-05-02T23:50:52.057Z,87.17
2019-05-02T23:53:22.105Z,87.82
2019-05-02T23:55:52.437Z,88.57
2019-05-02T23:58:22.618Z,88.96
